createdAt,value
2019-06-01T00:00:11.678Z,91.50
2019-06-01T00:02:35.488Z,91.50
2019-06-01T00:05:06.410Z,91.50
2019-06-01T00:07:34.828Z,91.60
2019-06-01T00:10:04.609Z,91.60
2019-06-01T00:12:33.014Z,91.80
2019-06-01T00:15:01.429Z,91.70
2019-06-01T00:17:30.133Z,91.70
2019-06-01T00:19:58.797Z,91.80
2019-06-01T00:22:27.201Z,91.80
2019-06-01T00:24:55.966Z,91.90
2019-06-01T00:27:24.653Z,92.00
2019-06-01T00:29:53.151Z,92.00
2019-06-01T00:32:21.842Z,92.10
2019-06-01T00:34:50.256Z,92.20
2019-06-01T00:37:18.661Z,92.40
2019-06-01T00:39:47.875Z,92.60
2019-06-01T00:42:16.561Z,92.40
2019-06-01T00:44:46.219Z,92.20
2019-06-01T00:47:14.857Z,92.30
2019-06-01T00:49:44.500Z,92.40
2019-06-01T00:52:13.474Z,92.30
2019-06-01T00:54:43.188Z,92.10
2019-06-01T00:57:11.723Z,92.10
2019-06-01T00:59:40.198Z,92.00
2019-06-01T01:02:08.942Z,92.10
2019-06-01T01:04:37.473Z,92.30
2019-06-01T01:07:06.047Z,92.30
2019-06-01T01:09:34.747Z,92.50
2019-06-01T01:12:03.148Z,92.60
2019-06-01T01:14:31.544Z,92.60
2019-06-01T01:16:59.953Z,92.70
2019-06-01T01:19:28.371Z,92.80
2019-06-01T01:21:57.820Z,92.90
2019-06-01T01:24:26.229Z,93.00
2019-06-01T01:26:54.724Z,93.00
2019-06-01T01:29:23.728Z,93.00
2019-06-01T01:31:53.167Z,93.20
2019-06-01T01:34:21.724Z,93.20
2019-06-01T01:36:50.153Z,93.40
2019-06-01T01:39:18.562Z,93.40
2019-06-01T01:41:47.993Z,93.40
2019-06-01T01:44:16.756Z,93.50
2019-06-01T01:46:45.172Z,93.60
2019-06-01T01:49:13.575Z,93.60
2019-06-01T01:51:42.004Z,93.70
2019-06-01T01:54:10.410Z,93.70
2019-06-01T01:56:38.831Z,93.70
2019-06-01T01:59:07.238Z,93.70
2019-06-01T02:01:36.003Z,93.80
2019-06-01T02:04:04.499Z,93.80
2019-06-01T02:06:33.264Z,93.90
2019-06-01T02:09:01.935Z,94.00
2019-06-01T02:11:30.860Z,94.20
2019-06-01T02:13:59.921Z,94.30
2019-06-01T02:16:28.867Z,94.20
2019-06-01T02:18:58.800Z,94.10
2019-06-01T02:21:27.419Z,94.30
2019-06-01T02:23:56.936Z,94.20
2019-06-01T02:26:25.638Z,94.00
2019-06-01T02:28:55.251Z,93.80
2019-06-01T02:31:39.703Z,93.80
2019-06-01T02:33:54.078Z,93.80
2019-06-01T02:36:22.492Z,93.80
2019-06-01T02:38:50.911Z,93.90
2019-06-01T02:41:19.669Z,93.80
2019-06-01T02:43:48.086Z,93.90
2019-06-01T02:46:16.848Z,94.10
2019-06-01T02:48:45.332Z,94.00
2019-06-01T02:51:13.737Z,94.00
2019-06-01T02:53:42.164Z,94.00
2019-06-01T02:56:10.574Z,93.90
2019-06-01T02:58:38.995Z,93.80
2019-06-01T03:01:21.690Z,93.90
2019-06-01T03:03:50.952Z,94.00
2019-06-01T03:06:20.198Z,94.00
2019-06-01T03:08:51.699Z,93.80
2019-06-01T03:11:22.014Z,93.70
2019-06-01T03:13:52.855Z,93.60
2019-06-01T03:16:24.599Z,93.60
2019-06-01T03:18:54.460Z,93.70
2019-06-01T03:21:24.835Z,94.00
2019-06-01T03:23:56.692Z,94.00
2019-06-01T03:26:28.003Z,94.00
2019-06-01T03:29:00.115Z,94.00
2019-06-01T03:31:28.891Z,93.90
2019-06-01T03:33:57.318Z,93.80
2019-06-01T03:36:26.118Z,93.90
2019-06-01T03:38:55.010Z,93.90
2019-06-01T03:41:23.691Z,93.90
2019-06-01T03:43:52.116Z,94.00
2019-06-01T03:46:20.522Z,94.00
2019-06-01T03:48:48.946Z,94.00
2019-06-01T03:51:17.356Z,94.10
2019-06-01T03:53:45.775Z,94.10
2019-06-01T03:56:14.186Z,94.10
2019-06-01T03:58:42.613Z,94.10
2019-06-01T04:01:11.225Z,93.90
2019-06-01T04:03:39.716Z,93.80
2019-06-01T04:06:09.330Z,93.80
2019-06-01T04:08:38.439Z,93.80
2019-06-01T04:11:07.765Z,94.00
2019-06-01T04:13:36.466Z,94.00
2019-06-01T04:16:05.862Z,94.20
2019-06-01T04:18:34.634Z,94.10
2019-06-01T04:21:04.227Z,94.00
2019-06-01T04:23:32.925Z,94.10
2019-06-01T04:26:02.168Z,94.10
2019-06-01T04:28:30.927Z,94.10
2019-06-01T04:30:59.326Z,93.90
2019-06-01T04:33:27.739Z,93.90
2019-06-01T04:35:56.159Z,93.90
2019-06-01T04:38:24.579Z,93.90
2019-06-01T04:40:52.999Z,93.90
2019-06-01T04:43:21.418Z,93.80
2019-06-01T04:45:49.864Z,93.80
2019-06-01T04:48:18.334Z,93.70
2019-06-01T04:50:46.747Z,93.80
2019-06-01T04:53:15.178Z,93.70
2019-06-01T04:55:43.655Z,93.50
2019-06-01T04:58:13.092Z,93.30
2019-06-01T05:00:41.640Z,93.10
2019-06-01T05:03:10.831Z,93.10
2019-06-01T05:05:40.350Z,92.90
2019-06-01T05:08:09.404Z,92.60
2019-06-01T05:10:38.058Z,92.30
2019-06-01T05:13:07.339Z,92.10
2019-06-01T05:15:35.874Z,92.00
2019-06-01T05:18:05.949Z,92.00
2019-06-01T05:20:36.136Z,91.70
2019-06-01T05:23:06.314Z,91.60
2019-06-01T05:25:35.286Z,91.70
2019-06-01T05:28:07.041Z,91.70
2019-06-01T05:30:35.855Z,91.60
2019-06-01T05:33:23.669Z,91.50
2019-06-01T05:35:36.607Z,91.30
2019-06-01T05:38:05.427Z,91.30
2019-06-01T05:40:34.216Z,91.70
2019-06-01T05:43:02.642Z,91.50
2019-06-01T05:45:31.099Z,91.40
2019-06-01T05:47:59.859Z,91.10
2019-06-01T05:50:28.331Z,91.10
2019-06-01T05:52:57.140Z,90.90
2019-06-01T05:55:25.663Z,91.10
2019-06-01T05:57:54.403Z,90.80
2019-06-01T06:00:28.649Z,89.90
2019-06-01T06:02:57.115Z,89.60
2019-06-01T06:05:25.571Z,89.20
2019-06-01T06:07:54.049Z,88.70
2019-06-01T06:10:22.499Z,88.60
2019-06-01T06:12:50.934Z,88.90
2019-06-01T06:15:19.701Z,88.40
2019-06-01T06:17:48.524Z,87.80
2019-06-01T06:20:17.997Z,87.70
2019-06-01T06:22:47.083Z,87.60
2019-06-01T06:25:16.056Z,87.20
2019-06-01T06:27:44.498Z,87.00
2019-06-01T06:30:13.455Z,86.50
2019-06-01T06:32:41.965Z,86.40
2019-06-01T06:35:10.578Z,86.60
2019-06-01T06:37:42.230Z,84.60
2019-06-01T06:40:10.796Z,83.70
2019-06-01T06:42:39.232Z,83.90
2019-06-01T06:45:08.147Z,84.00
2019-06-01T06:47:36.615Z,83.50
2019-06-01T06:50:06.346Z,82.60
2019-06-01T06:52:34.819Z,82.90
2019-06-01T06:55:03.745Z,82.80
2019-06-01T06:57:32.187Z,82.50
2019-06-01T07:00:00.623Z,81.60
2019-06-01T07:02:29.106Z,81.30
2019-06-01T07:04:57.551Z,79.90
2019-06-01T07:07:25.988Z,79.60
2019-06-01T07:09:54.746Z,78.70
2019-06-01T07:12:23.388Z,75.50
2019-06-01T07:14:51.915Z,75.70
2019-06-01T07:17:21.410Z,76.70
2019-06-01T07:19:50.247Z,74.50
2019-06-01T07:22:19.743Z,74.60
2019-06-01T07:24:48.520Z,74.10
2019-06-01T07:27:17.374Z,72.20
2019-06-01T07:29:46.212Z,72.60
2019-06-01T07:32:14.707Z,71.30
2019-06-01T07:34:43.216Z,71.50
2019-06-01T07:37:11.696Z,68.60
2019-06-01T07:39:40.157Z,68.40
2019-06-01T07:42:08.719Z,68.10
2019-06-01T07:44:37.203Z,69.50
2019-06-01T07:47:05.654Z,68.80
2019-06-01T07:49:34.132Z,69.10
2019-06-01T07:52:12.654Z,67.20
2019-06-01T07:54:32.884Z,65.40
2019-06-01T07:57:01.324Z,65.00
2019-06-01T07:59:30.535Z,65.20
2019-06-01T08:01:59.292Z,63.70
2019-06-01T08:04:28.604Z,63.40
2019-06-01T08:06:58.289Z,64.20
2019-06-01T08:09:27.920Z,64.40
2019-06-01T08:11:56.612Z,64.80
2019-06-01T08:14:26.434Z,63.40
2019-06-01T08:16:55.263Z,64.60
2019-06-01T08:19:23.903Z,62.50
2019-06-01T08:21:52.776Z,61.40
2019-06-01T08:24:22.154Z,62.10
2019-06-01T08:26:51.356Z,62.20
2019-06-01T08:29:19.803Z,60.30
2019-06-01T08:31:48.244Z,59.10
2019-06-01T08:34:17.101Z,58.40
2019-06-01T08:36:45.560Z,57.00
2019-06-01T08:39:14.014Z,57.00
2019-06-01T08:41:42.468Z,60.80
2019-06-01T08:44:10.920Z,60.30
2019-06-01T08:46:39.354Z,60.30
2019-06-01T08:49:07.799Z,60.70
2019-06-01T08:51:36.239Z,59.80
2019-06-01T08:54:05.334Z,60.50
2019-06-01T08:56:34.437Z,59.90
2019-06-01T08:59:04.423Z,57.30
2019-06-01T09:01:33.125Z,58.80
2019-06-01T09:04:01.915Z,60.10
2019-06-01T09:06:30.976Z,57.30
2019-06-01T09:08:59.548Z,56.60
2019-06-01T09:11:29.177Z,58.10
2019-06-01T09:13:57.997Z,57.60
2019-06-01T09:16:27.811Z,57.60
2019-06-01T09:18:56.995Z,53.70
2019-06-01T09:21:25.444Z,51.60
2019-06-01T09:23:54.160Z,53.20
2019-06-01T09:26:22.595Z,57.40
2019-06-01T09:28:51.032Z,55.00
2019-06-01T09:31:19.461Z,55.10
2019-06-01T09:33:47.902Z,51.90
2019-06-01T09:36:16.352Z,51.70
2019-06-01T09:38:44.785Z,51.50
2019-06-01T09:41:13.231Z,50.10
2019-06-01T09:43:41.744Z,54.50
2019-06-01T09:46:10.471Z,51.70
2019-06-01T09:48:38.924Z,49.70
2019-06-01T09:51:07.355Z,54.00
2019-06-01T09:53:36.145Z,55.00
2019-06-01T09:56:05.474Z,51.40
2019-06-01T09:58:34.632Z,52.60
2019-06-01T10:01:03.108Z,52.70
2019-06-01T10:03:32.422Z,50.80
2019-06-01T10:06:02.466Z,49.70
2019-06-01T10:08:32.564Z,50.00
2019-06-01T10:11:01.369Z,48.80
2019-06-01T10:13:30.461Z,50.10
2019-06-01T10:15:59.021Z,47.30
2019-06-01T10:18:27.523Z,49.20
2019-06-01T10:20:56.024Z,45.90
2019-06-01T10:23:24.469Z,48.90
2019-06-01T10:25:53.228Z,44.60
2019-06-01T10:28:21.678Z,48.80
2019-06-01T10:30:50.104Z,47.60
2019-06-01T10:33:18.555Z,45.60
2019-06-01T10:35:46.995Z,43.60
2019-06-01T10:38:15.513Z,46.40
2019-06-01T10:40:44.058Z,46.00
2019-06-01T10:43:12.896Z,46.20
2019-06-01T10:45:41.995Z,45.70
2019-06-01T10:48:10.655Z,44.90
2019-06-01T10:50:40.563Z,45.60
2019-06-01T10:53:09.578Z,45.70
2019-06-01T10:55:38.378Z,46.60
2019-06-01T10:58:08.250Z,45.00
2019-06-01T11:00:42.064Z,44.10
2019-06-01T11:03:06.850Z,44.50
2019-06-01T11:05:36.634Z,42.40
2019-06-01T11:08:05.403Z,43.80
2019-06-01T11:10:34.837Z,42.80
2019-06-01T11:13:03.652Z,44.30
2019-06-01T11:15:32.888Z,45.00
2019-06-01T11:18:01.667Z,44.40
2019-06-01T11:20:30.510Z,44.60
2019-06-01T11:22:59.712Z,44.60
2019-06-01T11:25:28.131Z,41.70
2019-06-01T11:27:56.551Z,43.70
2019-06-01T11:30:25.444Z,46.10
2019-06-01T11:32:53.859Z,47.40
2019-06-01T11:35:22.278Z,44.50
2019-06-01T11:37:50.703Z,43.50
2019-06-01T11:40:19.278Z,42.30
2019-06-01T11:42:48.187Z,44.10
2019-06-01T11:45:16.936Z,46.20
2019-06-01T11:47:45.360Z,48.30
2019-06-01T11:50:14.832Z,49.50
2019-06-01T11:52:43.340Z,51.70
2019-06-01T11:55:12.975Z,50.30
2019-06-01T11:57:41.624Z,48.20
2019-06-01T12:00:11.743Z,48.20
2019-06-01T12:02:41.659Z,50.40
2019-06-01T12:05:10.963Z,49.70
2019-06-01T12:07:39.858Z,49.10
2019-06-01T12:10:08.907Z,49.00
2019-06-01T12:12:38.292Z,49.50
2019-06-01T12:15:08.509Z,47.10
2019-06-01T12:17:36.931Z,50.30
2019-06-01T12:20:07.402Z,48.60
2019-06-01T12:22:36.742Z,48.10
2019-06-01T12:25:06.352Z,50.10
2019-06-01T12:27:35.342Z,50.20
2019-06-01T12:30:07.065Z,49.00
2019-06-01T12:32:35.487Z,46.50
2019-06-01T12:35:06.536Z,47.10
2019-06-01T12:37:55.049Z,49.80
2019-06-01T12:40:08.626Z,49.10
2019-06-01T12:42:37.031Z,49.60
2019-06-01T12:45:07.445Z,50.90
2019-06-01T12:47:35.986Z,47.70
2019-06-01T12:50:08.868Z,47.10
2019-06-01T12:52:37.463Z,50.30
2019-06-01T12:55:07.582Z,48.20
2019-06-01T12:57:37.673Z,45.20
2019-06-01T13:00:08.227Z,49.10
2019-06-01T13:02:36.646Z,50.60
2019-06-01T13:05:08.971Z,51.30
2019-06-01T13:07:51.187Z,49.80
2019-06-01T13:10:08.236Z,48.80
2019-06-01T13:12:36.677Z,47.40
2019-06-01T13:15:11.070Z,50.20
2019-06-01T13:17:39.479Z,46.60
2019-06-01T13:20:08.834Z,47.70
2019-06-01T13:22:37.635Z,45.50
2019-06-01T13:25:07.102Z,43.20
2019-06-01T13:27:35.774Z,49.10
2019-06-01T13:30:07.554Z,44.90
2019-06-01T13:32:35.972Z,48.00
2019-06-01T13:35:08.563Z,45.20
2019-06-01T13:37:36.987Z,48.20
2019-06-01T13:40:06.940Z,48.50
2019-06-01T13:42:35.420Z,48.30
2019-06-01T13:45:06.463Z,48.10
2019-06-01T13:47:34.879Z,46.80
2019-06-01T13:50:06.701Z,46.70
2019-06-01T13:52:35.874Z,47.00
2019-06-01T13:55:06.939Z,45.70
2019-06-01T13:57:38.587Z,46.70
2019-06-01T14:00:09.319Z,43.80
2019-06-01T14:02:37.735Z,43.70
2019-06-01T14:05:08.382Z,46.40
2019-06-01T14:07:36.889Z,45.20
2019-06-01T14:10:07.040Z,46.70
2019-06-01T14:12:35.464Z,45.00
2019-06-01T14:15:08.026Z,44.30
2019-06-01T14:17:36.625Z,44.50
2019-06-01T14:20:06.460Z,40.90
2019-06-01T14:22:34.871Z,44.10
2019-06-01T14:25:13.385Z,44.40
2019-06-01T14:27:37.551Z,43.00
2019-06-01T14:30:07.399Z,43.00
2019-06-01T14:32:35.822Z,40.50
2019-06-01T14:35:06.147Z,42.90
2019-06-01T14:37:34.575Z,43.30
2019-06-01T14:40:03.130Z,40.50
2019-06-01T14:42:31.607Z,40.60
2019-06-01T14:45:00.068Z,40.20
2019-06-01T14:47:28.499Z,39.90
2019-06-01T14:49:57.780Z,40.10
2019-06-01T14:52:26.575Z,39.50
2019-06-01T14:54:55.909Z,38.30
2019-06-01T14:57:24.502Z,38.00
2019-06-01T14:59:54.152Z,37.40
2019-06-01T15:02:22.798Z,34.90
2019-06-01T15:04:52.230Z,34.70
2019-06-01T15:07:20.802Z,36.30
2019-06-01T15:09:50.092Z,38.40
2019-06-01T15:12:18.934Z,35.90
2019-06-01T15:14:48.451Z,35.40
2019-06-01T15:17:17.063Z,35.60
2019-06-01T15:19:45.474Z,34.60
2019-06-01T15:22:13.886Z,33.50
2019-06-01T15:24:42.319Z,35.10
2019-06-01T15:27:10.811Z,38.20
2019-06-01T15:29:39.225Z,36.20
2019-06-01T15:32:07.939Z,35.00
2019-06-01T15:34:36.625Z,35.20
2019-06-01T15:37:05.033Z,35.60
2019-06-01T15:39:33.446Z,35.70
2019-06-01T15:42:01.864Z,35.10
2019-06-01T15:44:30.274Z,34.70
2019-06-01T15:46:59.684Z,36.80
2019-06-01T15:49:28.595Z,36.10
2019-06-01T15:51:57.855Z,36.00
2019-06-01T15:54:27.791Z,37.40
2019-06-01T15:56:56.411Z,37.60
2019-06-01T15:59:25.016Z,38.10
2019-06-01T16:01:53.415Z,38.90
2019-06-01T16:04:21.866Z,38.90
2019-06-01T16:06:50.278Z,40.00
2019-06-01T16:09:18.713Z,38.40
2019-06-01T16:11:47.141Z,39.50
2019-06-01T16:14:15.538Z,38.20
2019-06-01T16:16:43.954Z,38.10
2019-06-01T16:19:12.629Z,38.70
2019-06-01T16:21:41.044Z,36.40
2019-06-01T16:24:09.468Z,36.00
2019-06-01T16:26:37.879Z,35.00
2019-06-01T16:29:06.298Z,37.80
2019-06-01T16:31:34.708Z,37.30
2019-06-01T16:34:03.144Z,37.30
2019-06-01T16:36:31.550Z,35.90
2019-06-01T16:39:04.392Z,36.60
2019-06-01T16:41:30.104Z,36.10
2019-06-01T16:43:59.523Z,36.80
2019-06-01T16:46:28.010Z,37.70
2019-06-01T16:48:57.483Z,36.50
2019-06-01T16:51:26.160Z,35.90
2019-06-01T16:53:55.685Z,37.40
2019-06-01T16:56:24.423Z,37.70
2019-06-01T16:58:52.850Z,37.70
2019-06-01T17:01:21.258Z,39.80
2019-06-01T17:03:49.676Z,39.80
2019-06-01T17:06:18.464Z,40.60
2019-06-01T17:08:46.874Z,42.40
2019-06-01T17:11:15.283Z,41.80
2019-06-01T17:13:43.695Z,41.80
2019-06-01T17:16:12.115Z,43.30
2019-06-01T17:18:40.527Z,43.30
2019-06-01T17:21:08.944Z,44.30
2019-06-01T17:23:37.359Z,43.50
2019-06-01T17:26:07.121Z,45.00
2019-06-01T17:28:35.921Z,44.70
2019-06-01T17:31:04.416Z,44.50
2019-06-01T17:33:33.171Z,45.50
2019-06-01T17:36:02.717Z,44.30
2019-06-01T17:38:31.479Z,44.60
2019-06-01T17:41:00.313Z,45.40
2019-06-01T17:43:28.734Z,44.60
2019-06-01T17:45:57.146Z,45.20
2019-06-01T17:48:27.235Z,45.60
2019-06-01T17:50:55.712Z,45.70
2019-06-01T17:53:24.141Z,46.20
2019-06-01T17:55:52.620Z,46.60
2019-06-01T17:58:21.103Z,46.20
2019-06-01T18:00:49.527Z,46.60
2019-06-01T18:03:18.002Z,49.00
2019-06-01T18:05:46.497Z,48.00
2019-06-01T18:08:15.108Z,47.60
2019-06-01T18:10:53.909Z,48.40
2019-06-01T18:13:14.090Z,49.60
2019-06-01T18:15:42.588Z,49.00
2019-06-01T18:18:12.607Z,48.90
2019-06-01T18:20:41.581Z,50.70
2019-06-01T18:23:11.423Z,50.60
2019-06-01T18:25:40.781Z,52.20
2019-06-01T18:28:15.132Z,53.40
2019-06-01T18:30:39.429Z,54.50
2019-06-01T18:33:09.022Z,56.00
2019-06-01T18:35:37.620Z,56.60
2019-06-01T18:38:06.263Z,57.80
2019-06-01T18:40:35.727Z,59.20
2019-06-01T18:43:07.928Z,59.40
2019-06-01T18:45:37.083Z,60.10
2019-06-01T18:48:06.546Z,61.30
2019-06-01T18:50:35.643Z,61.50
2019-06-01T18:53:05.854Z,62.20
2019-06-01T18:55:35.763Z,62.80
2019-06-01T18:58:06.314Z,63.90
2019-06-01T19:00:39.324Z,64.60
2019-06-01T19:03:07.101Z,65.00
2019-06-01T19:05:35.990Z,65.20
2019-06-01T19:08:05.182Z,65.60
2019-06-01T19:10:34.282Z,66.30
2019-06-01T19:13:02.993Z,66.00
2019-06-01T19:15:31.427Z,66.60
2019-06-01T19:17:59.854Z,66.50
2019-06-01T19:20:28.623Z,66.70
2019-06-01T19:22:57.191Z,67.40
2019-06-01T19:25:26.141Z,67.40
2019-06-01T19:27:54.570Z,68.00
2019-06-01T19:30:34.747Z,68.10
2019-06-01T19:33:03.163Z,68.30
2019-06-01T19:35:32.946Z,68.90
2019-06-01T19:38:02.525Z,69.70
2019-06-01T19:40:33.657Z,70.10
2019-06-01T19:43:02.519Z,69.90
2019-06-01T19:45:30.943Z,69.70
2019-06-01T19:47:59.367Z,69.80
2019-06-01T19:50:27.786Z,70.10
2019-06-01T19:52:56.483Z,70.80
2019-06-01T19:55:24.895Z,71.00
2019-06-01T19:57:53.309Z,71.00
2019-06-01T20:00:22.461Z,71.40
2019-06-01T20:02:51.190Z,71.40
2019-06-01T20:05:19.901Z,71.90
2019-06-01T20:07:48.318Z,72.30
2019-06-01T20:10:16.811Z,72.20
2019-06-01T20:12:45.549Z,72.10
2019-06-01T20:15:15.367Z,72.40
2019-06-01T20:17:44.022Z,72.70
2019-06-01T20:20:12.819Z,73.10
2019-06-01T20:22:41.242Z,73.40
2019-06-01T20:25:11.502Z,73.80
2019-06-01T20:27:40.013Z,74.20
2019-06-01T20:30:08.797Z,74.40
2019-06-01T20:32:37.587Z,74.90
2019-06-01T20:35:06.537Z,75.30
2019-06-01T20:37:35.450Z,75.30
2019-06-01T20:40:06.946Z,75.70
2019-06-01T20:42:35.447Z,75.90
2019-06-01T20:45:08.564Z,76.30
2019-06-01T20:47:37.372Z,76.30
2019-06-01T20:50:09.826Z,76.70
2019-06-01T20:52:38.730Z,77.00
2019-06-01T20:55:08.923Z,77.20
2019-06-01T20:57:38.405Z,77.40
2019-06-01T21:00:08.666Z,77.70
2019-06-01T21:02:37.271Z,77.90
2019-06-01T21:05:09.697Z,78.10
2019-06-01T21:07:38.335Z,78.30
2019-06-01T21:10:08.640Z,78.70
2019-06-01T21:12:44.893Z,79.10
2019-06-01T21:15:08.340Z,79.30
2019-06-01T21:17:36.758Z,79.70
2019-06-01T21:20:08.419Z,79.80
2019-06-01T21:22:37.233Z,80.10
2019-06-01T21:25:07.404Z,80.30
2019-06-01T21:27:36.188Z,80.50
2019-06-01T21:30:06.711Z,80.90
2019-06-01T21:32:35.135Z,81.20
2019-06-01T21:35:03.997Z,81.40
2019-06-01T21:37:32.402Z,81.50
2019-06-01T21:40:00.806Z,81.70
2019-06-01T21:42:29.234Z,81.90
2019-06-01T21:44:57.648Z,82.00
2019-06-01T21:47:26.068Z,82.10
2019-06-01T21:49:54.478Z,82.30
2019-06-01T21:52:24.143Z,82.20
2019-06-01T21:54:52.881Z,82.50
2019-06-01T21:57:22.323Z,82.60
2019-06-01T21:59:50.986Z,82.90
2019-06-01T22:02:19.423Z,82.90
2019-06-01T22:04:48.299Z,83.00
2019-06-01T22:07:17.255Z,82.90
2019-06-01T22:09:46.211Z,83.10
2019-06-01T22:12:14.640Z,83.40
2019-06-01T22:14:43.339Z,83.50
2019-06-01T22:17:11.747Z,83.80
2019-06-01T22:19:40.174Z,83.90
2019-06-01T22:22:08.634Z,84.10
2019-06-01T22:24:37.079Z,84.30
2019-06-01T22:27:05.600Z,84.40
2019-06-01T22:29:34.019Z,85.10
2019-06-01T22:32:02.450Z,85.30
2019-06-01T22:34:31.284Z,85.60
2019-06-01T22:36:59.758Z,85.70
2019-06-01T22:39:28.980Z,85.70
2019-06-01T22:41:57.685Z,85.80
2019-06-01T22:44:26.251Z,85.90
2019-06-01T22:46:54.707Z,86.00
2019-06-01T22:49:23.209Z,86.30
2019-06-01T22:51:51.609Z,86.30
2019-06-01T22:54:21.047Z,86.30
2019-06-01T22:56:50.775Z,86.50
2019-06-01T22:59:20.420Z,86.40
2019-06-01T23:01:48.991Z,86.50
2019-06-01T23:04:17.423Z,86.40
2019-06-01T23:06:45.838Z,86.60
2019-06-01T23:09:14.250Z,86.60
2019-06-01T23:11:42.662Z,86.70
2019-06-01T23:14:11.082Z,86.80
2019-06-01T23:16:39.495Z,87.00
2019-06-01T23:19:07.922Z,87.20
2019-06-01T23:21:36.333Z,87.30
2019-06-01T23:24:05.152Z,87.40
2019-06-01T23:26:33.571Z,87.70
2019-06-01T23:29:02.339Z,87.90
2019-06-01T23:31:30.767Z,87.80
2019-06-01T23:33:59.177Z,87.80
2019-06-01T23:36:28.859Z,87.80
2019-06-01T23:38:57.686Z,87.80
2019-06-01T23:41:26.643Z,87.90
2019-06-01T23:44:10.354Z,87.90
2019-06-01T23:46:25.264Z,88.10
2019-06-01T23:48:53.973Z,88.40
2019-06-01T23:51:23.369Z,88.50
2019-06-01T23:53:51.981Z,88.50
2019-06-01T23:56:20.399Z,88.50
2019-06-01T23:58:48.824Z,88.60
